Time;durP1;ratioP1;P1;durP2;ratioP2;P2;SDS_P1;SDS_P2;PMS_P1;PMS_P2;Temp;Humidity;BMP_temperature;BMP_pressure;BME280_temperature;BME280_humidity;BME280_pressure;Samples;Min_cycle;Max_cycle;Signal;HPM_P1;HPM_P2
2023/05/14 00:00:31;;;;;;;21.92;14.10;;;14.30;65.40;;;;;;5032078;28;20418;-74
2023/05/14 00:02:57;;;;;;;31.92;15.60;;;14.30;65.50;;;;;;5031401;28;20383;-74
2023/05/14 00:05:22;;;;;;;25.00;15.00;;;14.30;65.40;;;;;;5031991;28;20398;-75
2023/05/14 00:07:48;;;;;;;21.30;13.80;;;14.20;65.50;;;;;;5031964;28;20387;-74
2023/05/14 00:10:13;;;;;;;21.17;14.23;;;14.10;65.80;;;;;;5031924;28;20476;-75
2023/05/14 00:12:39;;;;;;;20.35;14.43;;;14.10;65.80;;;;;;5031095;28;20394;-74
2023/05/14 00:15:05;;;;;;;23.25;15.95;;;14.00;66.50;;;;;;5031425;28;20414;-74
2023/05/14 00:17:30;;;;;;;20.95;15.25;;;13.60;69.70;;;;;;5031626;28;20411;-73
2023/05/14 00:19:56;;;;;;;24.85;15.93;;;13.40;74.90;;;;;;5031692;28;20465;-74
2023/05/14 00:22:21;;;;;;;20.85;15.43;;;13.40;77.20;;;;;;5031002;28;20384;-73
2023/05/14 00:24:47;;;;;;;26.17;16.38;;;13.30;76.50;;;;;;5031031;28;20880;-73
2023/05/14 00:27:13;;;;;;;21.97;16.70;;;13.10;81.20;;;;;;5031023;28;20386;-72
2023/05/14 00:29:41;;;;;;;24.13;15.35;;;13.20;79.80;;;;;;5031304;28;20398;-73
2023/05/14 00:32:07;;;;;;;20.33;14.75;;;13.00;81.20;;;;;;5030593;28;20710;-73
2023/05/14 00:34:34;;;;;;;22.00;15.13;;;12.80;82.70;;;;;;5031015;28;20494;-72
2023/05/14 00:37:00;;;;;;;21.70;15.10;;;12.60;83.60;;;;;;5031134;28;20442;-74
2023/05/14 00:39:25;;;;;;;23.17;16.60;;;12.50;85.00;;;;;;5031139;28;20428;-73
2023/05/14 00:41:51;;;;;;;20.47;15.40;;;12.50;85.30;;;;;;5030920;28;20380;-74
2023/05/14 00:44:16;;;;;;;20.37;15.00;;;12.40;87.00;;;;;;5031132;28;20740;-72
2023/05/14 00:46:42;;;;;;;24.33;16.50;;;12.40;85.10;;;;;;5031048;28;20379;-73
2023/05/14 00:49:08;;;;;;;19.60;15.30;;;12.30;85.60;;;;;;5030932;28;20440;-73
2023/05/14 00:51:33;;;;;;;24.90;14.35;;;12.20;86.30;;;;;;5012318;28;20395;-73
2023/05/14 00:53:59;;;;;;;22.52;15.13;;;12.10;86.40;;;;;;5030711;28;20394;-72
2023/05/14 00:56:26;;;;;;;26.10;16.13;;;12.30;87.30;;;;;;5031598;28;20383;-73
2023/05/14 00:58:52;;;;;;;20.20;14.85;;;12.60;83.30;;;;;;5014828;28;20418;-74
2023/05/14 01:01:17;;;;;;;21.50;14.40;;;12.50;81.10;;;;;;5034577;28;20977;-74
2023/05/14 01:03:43;;;;;;;23.05;15.40;;;12.50;82.60;;;;;;5038810;28;20876;-71
2023/05/14 01:06:24;;;;;;;26.55;17.75;;;12.60;80.30;;;;;;5037145;28;20884;-73
2023/05/14 01:09:07;;;;;;;24.67;17.48;;;12.60;81.10;;;;;;5030822;28;20856;-75
2023/05/14 01:11:43;;;;;;;26.15;18.08;;;12.30;84.20;;;;;;5030731;28;20383;-74
2023/05/14 01:14:43;;;;;;;25.30;17.53;;;12.00;88.10;;;;;;5030964;28;20387;-73
2023/05/14 01:17:12;;;;;;;22.63;16.50;;;12.00;94.30;;;;;;5030401;28;20900;-74
2023/05/14 01:19:42;;;;;;;25.08;16.08;;;11.90;95.50;;;;;;5030714;28;20411;-73
2023/05/14 01:22:09;;;;;;;23.05;16.60;;;11.90;95.60;;;;;;5029869;28;20379;-74
2023/05/14 01:24:35;;;;;;;21.58;16.70;;;11.80;96.10;;;;;;5030315;28;20403;-74
2023/05/14 01:27:09;;;;;;;24.70;18.40;;;11.70;97.20;;;;;;5030497;28;20383;-75
2023/05/14 01:29:38;;;;;;;25.52;17.00;;;11.70;98.60;;;;;;5030414;28;20478;-73
2023/05/14 01:32:06;;;;;;;22.63;16.83;;;11.90;98.10;;;;;;5029990;28;20490;-74
2023/05/14 01:34:34;;;;;;;26.17;18.33;;;11.80;97.60;;;;;;5030540;28;20429;-73
2023/05/14 01:37:00;;;;;;;23.98;18.48;;;11.50;98.90;;;;;;5012669;28;20916;-73
2023/05/14 01:39:26;;;;;;;24.43;17.40;;;11.60;99.90;;;;;;5030361;28;20803;-75
2023/05/14 01:41:53;;;;;;;24.75;18.00;;;11.50;99.90;;;;;;5030641;28;20382;-73
2023/05/14 01:44:19;;;;;;;25.35;17.70;;;11.50;99.90;;;;;;5030608;28;20387;-74
2023/05/14 01:46:44;;;;;;;27.77;19.25;;;11.30;99.90;;;;;;5030510;28;20394;-74
2023/05/14 01:49:10;;;;;;;25.90;18.67;;;11.10;99.90;;;;;;5030587;28;20768;-73
2023/05/14 01:51:36;;;;;;;25.63;17.80;;;11.30;99.90;;;;;;5029929;28;20387;-73
2023/05/14 01:54:02;;;;;;;26.83;19.83;;;11.60;99.90;;;;;;5031069;28;20386;-73
2023/05/14 01:56:27;;;;;;;26.17;19.00;;;11.60;99.90;;;;;;5031680;28;20419;-73
2023/05/14 01:58:55;;;;;;;24.80;19.10;;;11.40;99.90;;;;;;5030411;28;20390;-74
2023/05/14 02:01:21;;;;;;;27.08;19.33;;;11.20;99.90;;;;;;5030046;28;20383;-73
2023/05/14 02:03:47;;;;;;;27.27;19.50;;;11.10;99.90;;;;;;5030998;28;20394;-73
2023/05/14 02:06:12;;;;;;;30.67;19.77;;;11.20;99.90;;;;;;5039983;28;20391;-74
2023/05/14 02:08:38;;;;;;;27.70;20.20;;;11.00;99.90;;;;;;5047510;28;20394;-74
2023/05/14 02:11:03;;;;;;;29.70;21.10;;;11.00;99.90;;;;;;5048583;28;20410;-74
2023/05/14 02:13:29;;;;;;;25.83;19.57;;;11.00;99.90;;;;;;5050314;28;20405;-74
2023/05/14 02:15:55;;;;;;;25.77;19.05;;;10.80;99.90;;;;;;5045275;28;20474;-73
2023/05/14 02:18:20;;;;;;;29.93;20.47;;;10.70;99.90;;;;;;5033940;28;20407;-73
2023/05/14 02:20:46;;;;;;;29.55;19.80;;;10.60;99.90;;;;;;5015647;28;20799;-74
2023/05/14 02:23:11;;;;;;;27.58;18.95;;;10.50;99.90;;;;;;5032963;28;20410;-73
2023/05/14 02:25:37;;;;;;;25.40;17.63;;;10.70;99.90;;;;;;5033637;28;20391;-74
2023/05/14 02:28:02;;;;;;;24.02;20.00;;;10.80;99.90;;;;;;5033547;28;20447;-74
2023/05/14 02:30:30;;;;;;;28.90;20.95;;;10.80;99.90;;;;;;5033343;28;20387;-73
2023/05/14 02:32:55;;;;;;;26.90;21.00;;;10.70;99.90;;;;;;5015065;28;20491;-74
2023/05/14 02:35:21;;;;;;;32.80;21.73;;;10.70;99.90;;;;;;5033450;28;20481;-73
2023/05/14 02:37:47;;;;;;;28.23;20.35;;;10.50;99.90;;;;;;5032966;28;20414;-73
2023/05/14 02:40:12;;;;;;;27.13;19.60;;;10.60;99.90;;;;;;5033364;28;20384;-75
2023/05/14 02:42:38;;;;;;;27.90;20.33;;;10.50;99.90;;;;;;5033858;28;20914;-73
2023/05/14 02:45:04;;;;;;;30.30;20.77;;;10.50;99.90;;;;;;5033279;28;20452;-73
2023/05/14 02:47:30;;;;;;;27.63;20.33;;;10.40;99.90;;;;;;5033783;28;20379;-73
2023/05/14 02:49:55;;;;;;;28.45;19.60;;;10.30;99.90;;;;;;5032886;28;20406;-72
2023/05/14 02:52:21;;;;;;;34.93;22.37;;;10.30;99.90;;;;;;5014309;28;20391;-74
2023/05/14 02:54:46;;;;;;;31.60;22.30;;;10.20;99.90;;;;;;5032836;28;20391;-73
2023/05/14 02:57:12;;;;;;;33.03;21.73;;;10.10;99.90;;;;;;5032795;28;20892;-74
2023/05/14 02:59:37;;;;;;;31.27;20.30;;;10.10;99.90;;;;;;5032665;28;20380;-74
2023/05/14 03:02:03;;;;;;;34.23;20.57;;;10.10;99.90;;;;;;5032215;28;20379;-73
2023/05/14 03:04:29;;;;;;;30.80;20.40;;;10.10;99.90;;;;;;5032375;28;20393;-72
2023/05/14 03:06:54;;;;;;;29.43;19.70;;;10.10;99.90;;;;;;5014709;28;20485;-73
2023/05/14 03:09:20;;;;;;;26.83;19.70;;;10.00;99.90;;;;;;5032443;28;20401;-71
2023/05/14 03:11:45;;;;;;;26.67;19.90;;;9.90;99.90;;;;;;5031598;28;20390;-73
2023/05/14 03:14:11;;;;;;;25.33;18.63;;;10.00;99.90;;;;;;5032238;28;20927;-73
2023/05/14 03:16:37;;;;;;;22.80;19.20;;;10.00;99.90;;;;;;5032364;28;20434;-73
2023/05/14 03:19:02;;;;;;;26.25;18.70;;;10.20;99.90;;;;;;5032288;28;20379;-73
2023/05/14 03:21:28;;;;;;;27.10;17.90;;;10.60;99.90;;;;;;5031495;28;20375;-73
2023/05/14 03:23:53;;;;;;;26.50;18.95;;;10.70;99.90;;;;;;5031907;28;20395;-75
2023/05/14 03:26:20;;;;;;;28.88;19.92;;;10.40;99.90;;;;;;5032823;28;20371;-73
2023/05/14 03:28:45;;;;;;;26.23;19.15;;;10.50;99.90;;;;;;5032198;28;20418;-74
2023/05/14 03:31:11;;;;;;;28.20;20.03;;;10.30;99.90;;;;;;5031552;28;20525;-72
2023/05/14 03:33:37;;;;;;;31.27;21.13;;;10.40;99.90;;;;;;5031936;28;20729;-73
2023/05/14 03:36:02;;;;;;;30.70;20.60;;;10.30;99.90;;;;;;5031835;28;20433;-73
2023/05/14 03:38:28;;;;;;;33.10;23.00;;;10.10;99.90;;;;;;5031870;28;20490;-73
2023/05/14 03:40:53;;;;;;;32.33;22.23;;;10.00;99.90;;;;;;5031420;28;20899;-74
2023/05/14 03:43:19;;;;;;;34.93;23.73;;;10.00;99.90;;;;;;5032154;28;20389;-73
2023/05/14 03:45:45;;;;;;;30.10;22.80;;;9.90;99.90;;;;;;5031841;28;20753;-72
2023/05/14 03:48:10;;;;;;;35.93;25.03;;;9.90;99.90;;;;;;5031787;28;20938;-72
2023/05/14 03:50:36;;;;;;;29.80;22.33;;;9.80;99.90;;;;;;5031942;28;20766;-72
2023/05/14 03:53:01;;;;;;;33.50;22.20;;;9.80;99.90;;;;;;5031329;28;20425;-72
2023/05/14 03:55:27;;;;;;;28.42;22.27;;;9.80;99.90;;;;;;5032633;28;20386;-72
2023/05/14 03:57:52;;;;;;;26.58;20.15;;;9.80;99.90;;;;;;5033206;28;20410;-73
2023/05/14 04:00:18;;;;;;;28.98;20.60;;;10.00;99.90;;;;;;5033405;28;20800;-73
2023/05/14 04:02:43;;;;;;;32.97;22.70;;;10.10;99.90;;;;;;5033457;28;20834;-73
2023/05/14 04:05:09;;;;;;;32.90;23.42;;;10.00;99.90;;;;;;5033593;28;20394;-74
2023/05/14 04:07:35;;;;;;;26.50;20.90;;;9.90;99.90;;;;;;5038848;28;20421;-72
2023/05/14 04:10:02;;;;;;;29.20;22.67;;;9.90;99.90;;;;;;5031073;28;20402;-73
2023/05/14 04:12:27;;;;;;;33.67;23.80;;;9.90;99.90;;;;;;5030627;28;20387;-72
2023/05/14 04:14:53;;;;;;;31.67;23.13;;;9.90;99.90;;;;;;5030994;28;20940;-72
2023/05/14 04:17:18;;;;;;;29.98;22.92;;;10.00;99.90;;;;;;5031127;28;20840;-72
2023/05/14 04:19:44;;;;;;;31.67;22.63;;;10.00;99.90;;;;;;5031363;28;20593;-71
2023/05/14 04:22:10;;;;;;;32.33;23.15;;;10.00;99.90;;;;;;5030400;28;20474;-72
2023/05/14 04:24:35;;;;;;;32.55;23.27;;;10.10;99.90;;;;;;5031995;28;20740;-74
2023/05/14 04:27:01;;;;;;;30.00;22.50;;;10.30;99.90;;;;;;5032853;28;20383;-74
2023/05/14 04:29:26;;;;;;;33.43;22.60;;;10.30;99.90;;;;;;5032276;28;20406;-74
2023/05/14 04:31:52;;;;;;;33.07;23.50;;;10.30;99.90;;;;;;5031565;28;20756;-72
2023/05/14 04:34:18;;;;;;;32.60;23.17;;;10.30;99.90;;;;;;5030631;28;20390;-72
2023/05/14 04:36:43;;;;;;;32.30;22.87;;;10.60;99.90;;;;;;5031102;28;20878;-71
2023/05/14 04:39:11;;;;;;;32.47;22.50;;;10.50;99.90;;;;;;5030855;28;20387;-72
2023/05/14 04:41:36;;;;;;;32.50;22.55;;;10.60;99.90;;;;;;5030236;28;20394;-72
2023/05/14 04:44:02;;;;;;;30.10;22.43;;;10.60;99.90;;;;;;5030609;28;22097;-73
2023/05/14 04:46:28;;;;;;;27.40;21.57;;;10.70;99.90;;;;;;5013039;28;20435;-73
2023/05/14 04:48:54;;;;;;;32.07;22.00;;;10.80;99.90;;;;;;5030562;28;20478;-72
2023/05/14 04:51:19;;;;;;;28.85;21.75;;;10.80;99.90;;;;;;5030110;28;20391;-72
2023/05/14 04:53:45;;;;;;;28.58;22.50;;;10.80;99.90;;;;;;5030582;28;20383;-72
2023/05/14 04:56:11;;;;;;;32.40;21.40;;;10.80;99.90;;;;;;5030564;28;20749;-73
2023/05/14 04:58:36;;;;;;;27.30;22.20;;;10.90;99.90;;;;;;5032151;28;20409;-74
2023/05/14 05:01:04;;;;;;;28.50;21.50;;;11.00;99.90;;;;;;5030590;28;20747;-73
2023/05/14 05:03:30;;;;;;;32.92;21.83;;;11.10;99.90;;;;;;5031253;28;20379;-73
2023/05/14 05:05:55;;;;;;;31.73;21.65;;;11.20;99.90;;;;;;5031019;28;20387;-74
2023/05/14 05:08:21;;;;;;;31.80;20.67;;;11.30;99.90;;;;;;5013477;28;20387;-73
2023/05/14 05:10:47;;;;;;;29.20;19.90;;;11.40;99.90;;;;;;5030539;28;20389;-72
2023/05/14 05:13:13;;;;;;;29.48;20.95;;;11.50;99.90;;;;;;5030616;28;20390;-72
2023/05/14 05:15:38;;;;;;;32.67;22.98;;;11.50;99.90;;;;;;5031376;28;20391;-73
2023/05/14 05:18:04;;;;;;;28.43;21.20;;;11.60;99.90;;;;;;5031300;28;20411;-72
2023/05/14 05:20:29;;;;;;;30.47;21.90;;;11.60;99.90;;;;;;5030885;28;20415;-73
2023/05/14 05:22:55;;;;;;;27.73;21.13;;;11.70;99.90;;;;;;5030604;28;20388;-73
2023/05/14 05:25:21;;;;;;;27.30;21.45;;;11.70;99.90;;;;;;5030988;28;20399;-74
2023/05/14 05:27:46;;;;;;;28.80;22.00;;;11.60;99.90;;;;;;5031057;28;20383;-74
2023/05/14 05:30:12;;;;;;;26.63;21.07;;;11.60;99.90;;;;;;5031354;28;20390;-73
2023/05/14 05:32:38;;;;;;;33.63;21.27;;;11.60;99.90;;;;;;5030770;28;20940;-74
2023/05/14 05:35:03;;;;;;;31.43;21.37;;;11.70;99.90;;;;;;5030738;28;20383;-74
2023/05/14 05:37:29;;;;;;;25.33;20.80;;;11.80;99.90;;;;;;5031292;28;20424;-73
2023/05/14 05:39:55;;;;;;;24.97;20.30;;;11.90;99.30;;;;;;5030679;28;20739;-73
2023/05/14 05:42:21;;;;;;;25.07;20.37;;;12.00;96.60;;;;;;5030358;28;20811;-73
2023/05/14 05:44:47;;;;;;;25.15;19.50;;;12.20;96.40;;;;;;5031340;28;20783;-74
2023/05/14 05:47:12;;;;;;;27.25;21.20;;;12.30;94.10;;;;;;5034129;28;20386;-73
2023/05/14 05:49:38;;;;;;;28.97;19.07;;;12.50;90.20;;;;;;5034366;28;20386;-73
2023/05/14 05:52:04;;;;;;;26.73;21.50;;;12.60;89.40;;;;;;5034103;28;20391;-73
2023/05/14 05:54:31;;;;;;;25.77;20.20;;;12.70;88.60;;;;;;5034279;28;20871;-74
2023/05/14 05:56:57;;;;;;;28.83;20.60;;;12.80;88.00;;;;;;5033993;28;20474;-73
2023/05/14 05:59:23;;;;;;;31.00;22.08;;;12.90;88.80;;;;;;5034031;28;20411;-72
2023/05/14 06:01:49;;;;;;;27.60;21.77;;;13.00;87.60;;;;;;5033569;28;20413;-73
2023/05/14 06:04:14;;;;;;;27.55;21.20;;;13.20;85.80;;;;;;5033845;28;20383;-73
2023/05/14 06:06:40;;;;;;;29.20;21.35;;;13.30;84.20;;;;;;5033833;28;20383;-73
2023/05/14 06:09:06;;;;;;;28.57;20.90;;;13.40;83.70;;;;;;5033576;28;20394;-72
2023/05/14 06:11:31;;;;;;;28.40;21.30;;;13.60;81.20;;;;;;5033453;28;20398;-73
2023/05/14 06:13:57;;;;;;;30.73;21.87;;;13.70;78.70;;;;;;5033447;28;20784;-73
2023/05/14 06:16:23;;;;;;;31.97;21.73;;;13.70;77.80;;;;;;5033356;28;20418;-71
2023/05/14 06:18:51;;;;;;;30.83;21.13;;;13.80;77.50;;;;;;5033418;28;20390;-73
2023/05/14 06:21:16;;;;;;;27.37;21.53;;;13.90;77.50;;;;;;5033367;28;20567;-72
2023/05/14 06:23:42;;;;;;;25.30;20.43;;;14.00;75.10;;;;;;5033770;28;20407;-73
2023/05/14 06:26:07;;;;;;;28.47;19.90;;;14.00;74.20;;;;;;5033121;28;20403;-71
2023/05/14 06:28:33;;;;;;;27.40;20.02;;;14.10;74.60;;;;;;5033207;28;20713;-72
2023/05/14 06:30:58;;;;;;;26.60;19.85;;;14.40;72.90;;;;;;5032849;28;20738;-72
2023/05/14 06:33:29;;;;;;;25.00;19.07;;;14.60;70.30;;;;;;5033178;28;20437;-73
2023/05/14 06:35:58;;;;;;;24.35;20.02;;;14.60;69.20;;;;;;5015382;28;20403;-74
2023/05/14 06:38:24;;;;;;;25.43;19.60;;;14.70;68.50;;;;;;5033234;28;20417;-72
2023/05/14 06:40:50;;;;;;;27.02;19.52;;;14.70;68.20;;;;;;5032982;28;20387;-76
2023/05/14 06:43:16;;;;;;;27.67;20.08;;;14.70;67.60;;;;;;5033347;28;20884;-72
2023/05/14 06:45:41;;;;;;;27.60;20.40;;;14.90;66.50;;;;;;5033071;28;20478;-74
2023/05/14 06:48:08;;;;;;;26.23;20.80;;;15.00;66.40;;;;;;5033011;28;20379;-72
2023/05/14 06:50:34;;;;;;;25.95;20.15;;;15.00;63.90;;;;;;5032958;28;20386;-72
2023/05/14 06:53:00;;;;;;;27.58;21.38;;;15.10;64.70;;;;;;5032240;28;20383;-72
2023/05/14 06:55:25;;;;;;;28.50;20.55;;;15.20;65.10;;;;;;5032724;28;20895;-72
2023/05/14 06:57:51;;;;;;;26.08;20.73;;;15.40;63.40;;;;;;5032732;28;20411;-71
2023/05/14 07:00:17;;;;;;;26.00;21.50;;;15.40;62.50;;;;;;5032663;28;20390;-73
2023/05/14 07:02:43;;;;;;;31.57;22.00;;;15.50;63.00;;;;;;5032310;28;20415;-72
2023/05/14 07:05:09;;;;;;;28.87;20.53;;;15.50;62.00;;;;;;5032775;28;20474;-73
2023/05/14 07:07:35;;;;;;;25.33;20.67;;;15.50;61.30;;;;;;5032634;28;20418;-75
2023/05/14 07:10:00;;;;;;;25.27;20.35;;;15.60;61.90;;;;;;5032925;28;20395;-73
2023/05/14 07:12:26;;;;;;;27.03;21.23;;;15.70;62.00;;;;;;5032025;28;20391;-72
2023/05/14 07:14:52;;;;;;;26.23;21.10;;;15.70;60.10;;;;;;5032675;28;20474;-73
2023/05/14 07:17:17;;;;;;;26.07;19.70;;;15.80;60.00;;;;;;5032580;28;20410;-73
2023/05/14 07:19:43;;;;;;;29.52;20.50;;;15.90;59.80;;;;;;5032455;28;20395;-72
2023/05/14 07:22:08;;;;;;;28.42;20.30;;;15.90;57.40;;;;;;5032007;28;20470;-73
2023/05/14 07:24:34;;;;;;;26.33;20.90;;;16.30;53.70;;;;;;5032511;28;20399;-73
2023/05/14 07:27:00;;;;;;;24.90;19.93;;;16.40;52.20;;;;;;5032269;28;20390;-73
2023/05/14 07:29:26;;;;;;;30.33;20.20;;;16.30;50.70;;;;;;5032364;28;20444;-73
2023/05/14 07:31:51;;;;;;;28.08;21.40;;;16.30;48.90;;;;;;5032040;28;20756;-73
2023/05/14 07:34:18;;;;;;;26.23;20.07;;;16.30;48.60;;;;;;5032761;28;20394;-73
2023/05/14 07:36:44;;;;;;;28.73;21.17;;;16.30;49.00;;;;;;5032246;28;20437;-74
2023/05/14 07:39:09;;;;;;;27.25;20.10;;;16.40;48.30;;;;;;5032148;28;20379;-73
2023/05/14 07:41:35;;;;;;;29.98;24.20;;;16.50;48.00;;;;;;5031624;28;20714;-73
2023/05/14 07:44:00;;;;;;;25.53;18.90;;;17.00;44.20;;;;;;5031761;28;20517;-74
2023/05/14 07:46:26;;;;;;;22.90;17.67;;;17.30;39.80;;;;;;5032198;28;20411;-73
2023/05/14 07:48:51;;;;;;;26.17;19.70;;;17.40;39.50;;;;;;5031823;28;20419;-73
2023/05/14 07:51:17;;;;;;;26.40;19.50;;;17.30;40.70;;;;;;5031212;28;20383;-73
2023/05/14 07:53:42;;;;;;;23.80;18.40;;;17.30;41.60;;;;;;5031650;28;20408;-72
2023/05/14 07:56:08;;;;;;;21.83;17.38;;;17.50;39.00;;;;;;5031546;28;20387;-73
2023/05/14 07:58:34;;;;;;;26.50;18.60;;;17.70;35.90;;;;;;5031795;28;20769;-73
2023/05/14 08:01:00;;;;;;;23.30;17.83;;;17.60;36.70;;;;;;5031115;28;20387;-74
2023/05/14 08:03:26;;;;;;;23.65;17.00;;;17.70;36.40;;;;;;5031402;28;20402;-73
2023/05/14 08:05:51;;;;;;;24.57;17.80;;;17.70;35.80;;;;;;5031800;28;20803;-72
2023/05/14 08:08:17;;;;;;;23.88;17.05;;;17.70;37.40;;;;;;5030542;28;20747;-73
2023/05/14 08:10:43;;;;;;;26.10;17.03;;;17.80;35.20;;;;;;5031477;28;20491;-71
2023/05/14 08:13:08;;;;;;;21.10;16.03;;;17.80;34.20;;;;;;5030828;28;20383;-74
2023/05/14 08:15:34;;;;;;;19.35;15.40;;;17.80;33.80;;;;;;5031357;28;20474;-72
2023/05/14 08:18:02;;;;;;;19.55;15.23;;;18.00;32.20;;;;;;5013394;28;20403;-73
2023/05/14 08:20:29;;;;;;;19.02;14.93;;;18.30;30.60;;;;;;5031268;28;20426;-73
2023/05/14 08:22:56;;;;;;;19.23;15.65;;;18.40;29.50;;;;;;5031127;28;20383;-73
2023/05/14 08:25:22;;;;;;;18.53;14.90;;;18.40;29.20;;;;;;5031151;28;20405;-72
2023/05/14 08:27:48;;;;;;;27.02;15.00;;;18.50;29.20;;;;;;5030920;28;20394;-73
2023/05/14 08:30:14;;;;;;;19.87;15.10;;;18.60;29.50;;;;;;5031306;28;20383;-72
2023/05/14 08:32:39;;;;;;;21.47;14.80;;;18.60;28.60;;;;;;5030368;28;20745;-71
2023/05/14 08:35:05;;;;;;;19.83;15.20;;;18.70;28.70;;;;;;5031184;28;20394;-73
2023/05/14 08:37:31;;;;;;;19.05;15.10;;;18.80;28.90;;;;;;5030905;28;20469;-75
2023/05/14 08:39:57;;;;;;;18.88;14.90;;;18.90;29.10;;;;;;5032560;28;20383;-74
2023/05/14 08:42:23;;;;;;;24.25;18.13;;;19.00;28.00;;;;;;5032003;28;20379;-74
2023/05/14 08:44:55;;;;;;;28.20;21.08;;;19.00;29.20;;;;;;5049474;28;20463;-74
2023/05/14 08:47:23;;;;;;;27.55;19.83;;;18.90;30.10;;;;;;5047462;28;20395;-73
2023/05/14 08:49:57;;;;;;;27.05;20.92;;;18.90;30.30;;;;;;5031063;28;20383;-73
2023/05/14 08:52:23;;;;;;;25.50;19.90;;;19.00;29.40;;;;;;5030338;28;20399;-73
2023/05/14 08:54:51;;;;;;;25.57;20.20;;;19.20;29.00;;;;;;5031144;28;20514;-73
2023/05/14 08:57:18;;;;;;;28.05;20.05;;;19.20;28.30;;;;;;5031094;28;20520;-72
2023/05/14 08:59:44;;;;;;;30.13;20.33;;;19.30;28.60;;;;;;5030972;28;20918;-73
2023/05/14 09:02:13;;;;;;;26.15;20.00;;;19.20;28.90;;;;;;5030523;28;20391;-73
2023/05/14 09:04:39;;;;;;;28.38;19.27;;;19.40;28.80;;;;;;5036338;28;20383;-73
2023/05/14 09:07:06;;;;;;;26.42;19.35;;;19.50;30.40;;;;;;5039704;28;20383;-74
2023/05/14 09:09:32;;;;;;;25.05;17.23;;;19.60;29.00;;;;;;5038563;28;20860;-75
2023/05/14 09:11:57;;;;;;;20.98;17.13;;;19.60;28.70;;;;;;5036322;28;20444;-72
2023/05/14 09:14:23;;;;;;;22.45;17.00;;;19.50;27.90;;;;;;5035565;28;20390;-73
2023/05/14 09:16:50;;;;;;;22.90;16.60;;;19.40;27.60;;;;;;5036515;28;20399;-72
2023/05/14 09:19:17;;;;;;;25.00;19.15;;;19.40;28.10;;;;;;5038762;28;20375;-73
2023/05/14 09:21:44;;;;;;;28.17;17.30;;;19.70;29.40;;;;;;5021627;28;20387;-72
2023/05/14 09:24:23;;;;;;;20.48;15.43;;;20.00;28.90;;;;;;5039618;28;20430;-76
2023/05/14 09:26:55;;;;;;;18.80;14.70;;;19.90;25.70;;;;;;5040349;28;20447;-74
2023/05/14 09:29:22;;;;;;;20.60;14.52;;;19.80;25.70;;;;;;5037711;28;20391;-73
2023/05/14 09:31:49;;;;;;;22.13;16.40;;;19.70;25.10;;;;;;5037020;28;20458;-74
2023/05/14 09:34:29;;;;;;;21.23;16.60;;;19.80;28.40;;;;;;5041024;28;20387;-73
2023/05/14 09:36:59;;;;;;;18.20;13.20;;;19.90;26.00;;;;;;5022719;28;20399;-75
2023/05/14 09:39:25;;;;;;;20.02;13.85;;;20.00;25.20;;;;;;5037885;28;20390;-73
2023/05/14 09:41:51;;;;;;;15.75;11.15;;;20.00;25.40;;;;;;5040233;28;20748;-73
2023/05/14 09:44:21;;;;;;;16.33;13.68;;;20.00;19.80;;;;;;5043519;28;20798;-74
2023/05/14 09:46:47;;;;;;;21.92;12.20;;;20.20;21.90;;;;;;5043073;28;20715;-73
2023/05/14 09:49:13;;;;;;;14.40;9.90;;;20.50;21.80;;;;;;5042501;28;20386;-74
2023/05/14 09:51:39;;;;;;;10.57;8.18;;;20.80;20.40;;;;;;5040710;28;20448;-74
2023/05/14 09:54:05;;;;;;;10.20;7.05;;;21.10;19.10;;;;;;5040629;28;20390;-75
2023/05/14 09:56:36;;;;;;;11.35;7.32;;;20.90;16.90;;;;;;5039392;28;20411;-73
2023/05/14 09:59:02;;;;;;;9.27;6.97;;;20.70;16.80;;;;;;5018599;28;20394;-73
2023/05/14 10:01:29;;;;;;;7.80;6.40;;;20.70;16.30;;;;;;5034131;28;20383;-73
2023/05/14 10:03:55;;;;;;;6.90;6.20;;;20.70;15.50;;;;;;5034002;28;20466;-73
2023/05/14 10:06:24;;;;;;;7.25;6.20;;;21.00;15.70;;;;;;5034173;28;20383;-74
2023/05/14 10:08:54;;;;;;;8.77;6.28;;;21.30;15.10;;;;;;5034276;28;20464;-74
2023/05/14 10:11:27;;;;;;;8.05;6.55;;;21.20;15.60;;;;;;5034816;28;20379;-73
2023/05/14 10:14:17;;;;;;;7.15;6.20;;;21.10;15.20;;;;;;5033982;28;20406;-74
2023/05/14 10:16:48;;;;;;;10.23;6.13;;;21.20;14.90;;;;;;5033748;28;20410;-73
2023/05/14 10:19:16;;;;;;;10.85;6.50;;;21.20;15.50;;;;;;5015918;28;20398;-73
2023/05/14 10:21:46;;;;;;;7.40;5.80;;;21.20;14.80;;;;;;5033246;28;20387;-74
2023/05/14 10:24:12;;;;;;;12.55;6.45;;;21.20;14.60;;;;;;5033441;28;21006;-72
2023/05/14 10:26:39;;;;;;;12.70;7.30;;;21.30;14.40;;;;;;5035442;28;20470;-73
2023/05/14 10:29:05;;;;;;;7.32;6.00;;;21.50;15.20;;;;;;5033602;28;20869;-73
2023/05/14 10:31:50;;;;;;;10.05;6.43;;;21.90;14.50;;;;;;5032017;28;20387;-73
2023/05/14 10:34:41;;;;;;;8.40;6.20;;;22.10;13.50;;;;;;5033356;28;20394;-73
2023/05/14 10:37:06;;;;;;;6.47;5.80;;;22.70;12.10;;;;;;5033400;28;20417;-73
2023/05/14 10:39:57;;;;;;;9.80;6.53;;;22.80;12.30;;;;;;5033504;28;20383;-71
2023/05/14 10:42:31;;;;;;;10.68;6.85;;;22.70;12.70;;;;;;5032660;28;20406;-72
2023/05/14 10:45:06;;;;;;;8.10;6.63;;;22.70;12.30;;;;;;5033051;28;20437;-73
2023/05/14 10:47:32;;;;;;;7.30;6.60;;;22.70;13.00;;;;;;5033177;28;20411;-72
2023/05/14 10:49:59;;;;;;;13.07;7.60;;;22.70;12.80;;;;;;5032699;28;20375;-73
2023/05/14 10:52:25;;;;;;;7.25;6.55;;;22.60;13.10;;;;;;5032627;28;20394;-72
2023/05/14 10:55:06;;;;;;;13.27;7.82;;;22.20;13.80;;;;;;5033054;28;20387;-74
2023/05/14 10:57:33;;;;;;;11.00;7.65;;;21.90;14.10;;;;;;5017376;28;20919;-73
2023/05/14 11:00:00;;;;;;;12.02;7.45;;;21.80;14.00;;;;;;5034085;28;20398;-73
2023/05/14 11:02:28;;;;;;;8.45;6.03;;;21.80;14.20;;;;;;5032719;28;20394;-72
2023/05/14 11:04:59;;;;;;;5.68;4.50;;;21.70;11.00;;;;;;5032233;28;20396;-73
2023/05/14 11:07:31;;;;;;;5.88;3.97;;;21.70;8.50;;;;;;5032832;28;20382;-72
2023/05/14 11:10:10;;;;;;;6.15;4.05;;;21.60;7.30;;;;;;5032968;28;20740;-72
2023/05/14 11:12:39;;;;;;;7.35;3.92;;;21.50;5.70;;;;;;5033509;28;20387;-74
2023/05/14 11:15:09;;;;;;;5.27;3.90;;;21.40;5.00;;;;;;5036409;28;20474;-75
2023/05/14 11:17:36;;;;;;;8.93;4.35;;;21.30;4.50;;;;;;5020883;28;20757;-74
2023/05/14 11:20:04;;;;;;;6.32;4.13;;;21.50;5.00;;;;;;5035181;28;20574;-74
2023/05/14 11:22:30;;;;;;;7.80;3.80;;;21.80;3.80;;;;;;5016498;28;20383;-74
2023/05/14 11:24:56;;;;;;;6.00;3.90;;;21.90;3.00;;;;;;5032158;28;20401;-74
2023/05/14 11:27:23;;;;;;;6.20;4.10;;;21.80;3.90;;;;;;5032727;28;20383;-72
2023/05/14 11:29:49;;;;;;;7.35;4.70;;;21.90;4.30;;;;;;5032265;28;20417;-74
2023/05/14 11:32:15;;;;;;;6.93;4.50;;;21.90;5.00;;;;;;5031464;28;20445;-73
2023/05/14 11:34:43;;;;;;;7.30;4.30;;;22.00;4.10;;;;;;5032750;28;20670;-71
2023/05/14 11:37:11;;;;;;;5.97;3.90;;;22.00;3.50;;;;;;5032303;28;20829;-73
2023/05/14 11:39:38;;;;;;;6.75;4.15;;;22.10;2.30;;;;;;5031948;28;20486;-73
2023/05/14 11:42:08;;;;;;;5.00;3.90;;;22.20;2.60;;;;;;5022749;28;20399;-72
2023/05/14 11:44:34;;;;;;;8.60;3.90;;;22.20;1.90;;;;;;5030935;28;20391;-74
2023/05/14 11:47:03;;;;;;;6.55;3.60;;;22.40;2.90;;;;;;5032468;28;20391;-72
2023/05/14 11:49:29;;;;;;;5.93;3.65;;;22.70;1.00;;;;;;5032158;28;20395;-73
2023/05/14 11:51:59;;;;;;;4.47;3.90;;;22.70;1.00;;;;;;5031091;28;20391;-74
2023/05/14 11:54:28;;;;;;;6.63;3.50;;;22.60;1.00;;;;;;5031861;28;20501;-73
2023/05/14 11:56:58;;;;;;;8.80;3.88;;;22.80;2.10;;;;;;5031116;28;20414;-71
2023/05/14 11:59:27;;;;;;;4.30;3.90;;;23.00;1.00;;;;;;5031681;28;20386;-72
2023/05/14 12:01:54;;;;;;;10.98;4.63;;;23.20;1.60;;;;;;5031254;28;20401;-72
2023/05/14 12:04:21;;;;;;;10.07;4.05;;;23.30;2.00;;;;;;5031375;28;20377;-73
2023/05/14 12:06:48;;;;;;;6.13;4.35;;;23.60;1.50;;;;;;5031702;28;20383;-73
2023/05/14 12:09:16;;;;;;;5.05;3.90;;;23.90;1.80;;;;;;5031753;28;20387;-74
2023/05/14 12:11:44;;;;;;;3.95;3.60;;;24.10;1.00;;;;;;5030504;28;20383;-72
2023/05/14 12:14:13;;;;;;;7.10;3.60;;;24.30;1.00;;;;;;5013512;28;20911;-72
2023/05/14 12:16:41;;;;;;;5.40;4.47;;;24.50;1.00;;;;;;5031403;28;20398;-73
2023/05/14 12:19:09;;;;;;;6.63;5.40;;;24.50;1.00;;;;;;5029388;28;20383;-73
2023/05/14 12:21:35;;;;;;;7.77;4.43;;;24.60;1.00;;;;;;5030573;28;20491;-72
2023/05/14 12:24:01;;;;;;;7.33;4.30;;;24.70;1.00;;;;;;5030581;28;20749;-73
2023/05/14 12:26:27;;;;;;;5.30;3.40;;;24.50;1.00;;;;;;5031456;28;20375;-73
2023/05/14 12:29:02;;;;;;;3.90;3.50;;;24.30;1.00;;;;;;5030484;28;20841;-72
2023/05/14 12:31:35;;;;;;;12.65;3.83;;;23.70;1.00;;;;;;5030569;28;20391;-73